Record high temperature 35.2°C Record low temperature -28.5°C Record high gust 73.6 km/h Record high average 52.2 km/h Record daily rain 78.0 mm Record low windchill -39.6°C Record high barometer 1049.5 hPa Record low barometer 973.0 hPa
Daily high pressure 1019 hPa Daily low pressure 1016 hPa Daily low windchill 18.0°C Daily high heat index 24.3°C Daily high gust speed 13.0 kmh NW Daily high average speed 9.3 kmh E
Beaconsfield Home Weather Data WMR-968
LAST READING AT TIME: 14:40 DATE: July 30 2016, time of next update: 14:45
Current WeatherSunny/Dry Current Temperature 24.2°C (75.6°F) (Heat Index 24.2°C ), Apparent temp 23.9°C , Apparent temp solar 30.5°C
Maximum Temperature (since midnight)24.3°C at: 13:49 Minimum Temperature (since midnight)18.0°C at: 05:52
Average windspeed (ten minute)1.7 kmh (0.9 kts) Wind Direction (ten minute)S (183°)
Windchill Temperature 24.2°C Maximum Gust (last hour)7.9 kmh (4.3 kts) at: 14:20
Maximum Gust (since midnight)13.0 kmh (7.0 kts) at: 00:19 Maximum 1 minute average (since midnight)9.3 kmh (5.1 kts) at: 08:27
Rainfall (last hour)0.0 mm Rainfall (since midnight)0.0 mm (0.00 in.)---
Rainfall This month 70.8 mm (2.79 in.) Rainfall To date this year 351.6 mm (13.84 in.)
Maximum rain per minute (last hour)0.0 mm/min Maximum rain per hour (last 6 hours)0.0 mm/hour
Yesterdays rainfall 0.0 mm DewPoint 1.7°C (Wet Bulb :13.5°C )
Humidity 23 %, Humidex 22.5°C Barometer corrected to msl1018 hPa
Pressure change 0 hPa (last hour) Trend (last hour)STEADY
Pressure change (last 12 hours)+2 hPa Pressure change (last 6 hours)-1 hPa
Current Indoor Temp. 24.7°C
Current Indoor Hum. 42%
Current Solar 671 W/mē
Maximum solar (since midnight) 740 W/mē Minimum solar (since midnight)1000 W/mē
Current 00:36 hours of sunshine today, current sky: Sunny
Sunshine hours for the year: 28:43 hrs Sunshine hours for the month: 06:30 hrs
Current evapotranspiration rate 5.1 mm per day. Yesterday's reading 5.5




Weather report/warning/Metars

Montreal / Pierre Elliot Trudeau International Airport, Que, Canada (CYUL) 45-28N 073-45W 36M
Jul 30, 2016 - 02:00 PM EDT / 2016.07.30 1800 UTC
Wind: from the WSW (240 degrees) at 7 MPH (6 KT) (direction variable):0
Visibility: 30 mile(s):0
Sky conditions: mostly cloudy
Temperature: 77 F (25 C)
Dew Point: 51 F (11 C)
Relative Humidity: 41%
Pressure (altimeter): 30.07 in. Hg (1018 hPa)
ob: CYUL 301800Z 24006KT 190V330 30SM FEW055 FEW170 BKN250 25/11 A3007 RMK SC2AC1CI3 AC TR SLP183 DENSITY ALT 1000FT
cycle: 18
Sherbrooke, Que., Canada (CYSC) 45-24N 071-53W
Jul 30, 2016 - 02:00 PM EDT / 2016.07.30 1800 UTC
Wind: from the NNW (330 degrees) at 8 MPH (7 KT) (direction variable):0
Visibility: 9 mile(s):0
Sky conditions: mostly clear
Temperature: 73 F (23 C)
Dew Point: 53 F (12 C)
Relative Humidity: 49%
Pressure (altimeter): 30.07 in. Hg (1018 hPa)
ob: CYSC 301800Z AUTO 33007KT 280V360 9SM FEW047 23/12 A3007 RMK SLP184 DENSITY ALT 1700FT
cycle: 18
St Jovite Automatic Weather Reporting System , Canada (CWJT) 46-04N 074-32W
Jul 30, 2016 - 02:00 PM EDT / 2016.07.30 1800 UTC
Wind: from the E (090 degrees) at 1 MPH (1 KT):0
Temperature: 74.5 F (23.6 C)
Dew Point: 53.4 F (11.9 C)
Relative Humidity: 47%
Pressure tendency: 0.02 inches (0.6 hPa) lower than three hours ago
ob: CWJT 301800Z AUTO 09001KT 24/12 RMK AO1 SLP187 T02360119 58006
cycle: 18
Ste Anne De Bell 1, Canada (CWVQ) 45-26N 073-56W
Jul 30, 2016 - 02:00 PM EDT / 2016.07.30 1800 UTC
Wind: from the WNW (290 degrees) at 6 MPH (5 KT):0
Temperature: 75.4 F (24.1 C)
Dew Point: 54.1 F (12.3 C)
Relative Humidity: 47%
Pressure tendency: 0.02 inches (0.8 hPa) lower than three hours ago
ob: CWVQ 301800Z AUTO 29005KT 24/12 RMK AO1 SLP185 T02410123 56008
cycle: 18
Montreal / Mirabel, Canada (CYMX) 45-41N 074-02W
Jul 30, 2016 - 02:00 PM EDT / 2016.07.30 1800 UTC
Wind: Variable at 6 MPH (5 KT):0
Visibility: 45 mile(s):0
Sky conditions: mostly cloudy
Temperature: 75 F (24 C)
Dew Point: 55 F (13 C)
Relative Humidity: 50%
Pressure (altimeter): 30.08 in. Hg (1018 hPa)
ob: CYMX 301800Z VRB05KT 45SM SCT053 BKN220 24/13 A3008 RMK CU4CI1 SLP189 DENSITY ALT 1100FT
cycle: 18
L'Acadie, Canada (CWIZ) 45-18N 073-21W
Jul 30, 2016 - 02:00 PM EDT / 2016.07.30 1800 UTC
Wind: from the NNW (330 degrees) at 2 MPH (2 KT):0
Temperature: 74.5 F (23.6 C)
Dew Point: 54.0 F (12.2 C)
Relative Humidity: 48%
ob: CWIZ 301800Z AUTO 33002KT 24/12 RMK AO1 T02360122
cycle: 18
St Anicet, Canada (CWBZ) 45-07N 074-17W 49M
Jul 30, 2016 - 02:00 PM EDT / 2016.07.30 1800 UTC
Wind: from the NNE (030 degrees) at 6 MPH (5 KT):0
Temperature: 75.4 F (24.1 C)
Dew Point: 57.4 F (14.1 C)
Relative Humidity: 53%
Pressure tendency: 0.01 inches (0.4 hPa) lower than three hours ago
ob: CWBZ 301800Z AUTO 03005KT 24/14 RMK AO1 SLP184 T02410141 56004
cycle: 18
Mount Washington, NH, United States (KMWN) 44-16N 071-18W 1910M
Jul 30, 2016 - 01:48 PM EDT / 2016.07.30 1748 UTC
Wind: Variable at 5 MPH (4 KT):0
Visibility: 100 mile(s):0
Sky conditions: mostly cloudy
Temperature: 53 F (12 C)
Dew Point: 46 F (8 C)
Relative Humidity: 76%
ob: KMWN 301748Z VRB04KT 100SM SCT005 BKN100 BKN160 BKN180 BKN200 12/08 RMK 10131 20066
cycle: 18
Vancouver International Air-Port, B. C., Canada (CYVR) 49-11N 123-10W 2M
Jul 30, 2016 - 02:00 PM EDT / 2016.07.30 1800 UTC
Wind: from the W (280 degrees) at 20 MPH (17 KT) gusting to 25 MPH (22 KT):0
Visibility: 30 mile(s):0
Sky conditions: mostly clear
Temperature: 66 F (19 C)
Dew Point: 53 F (12 C)
Relative Humidity: 63%
Pressure (altimeter): 29.93 in. Hg (1013 hPa)
ob: CYVR 301800Z 28017G22KT 30SM FEW230 19/12 A2993 RMK CS1 TR SC VIS NE 20SM SLP137 DENSITY ALT 400FT
cycle: 18



The data is logged at two minute intervals, but there is data recorded every minute.

Use the RELOAD facility on your browser to retrieve the latest data.

Click here for a daily update of the averages/extremes to date for the month

Click here for Real Time Weather



Created by "Weather Display" software version 10.37S at this start time/date 22:28:37 2016-07-22